createdAt,value
2019-04-28T00:00:02.289Z,220.11
2019-04-28T00:00:07.291Z,220.63
2019-04-28T00:00:12.294Z,220.63
2019-04-28T00:00:17.293Z,221.08
2019-04-28T00:00:22.295Z,221.08
2019-04-28T00:00:27.294Z,221.49
2019-04-28T00:00:32.295Z,221.49
2019-04-28T00:00:37.300Z,221.86
2019-04-28T00:00:42.297Z,221.86
2019-04-28T00:00:47.299Z,222.18
2019-04-28T00:00:52.299Z,222.18
2019-04-28T00:00:57.299Z,222.47
2019-04-28T00:01:02.300Z,222.47
2019-04-28T00:01:07.311Z,226.96
2019-04-28T00:01:12.303Z,226.96
2019-04-28T00:01:17.306Z,226.76
2019-04-28T00:01:22.306Z,226.76
2019-04-28T00:01:27.307Z,226.57
2019-04-28T00:01:32.309Z,226.57
2019-04-28T00:01:37.308Z,226.41
2019-04-28T00:01:42.310Z,226.41
2019-04-28T00:01:47.309Z,226.26
2019-04-28T00:01:52.312Z,226.26
2019-04-28T00:01:57.311Z,226.13
2019-04-28T00:02:02.314Z,226.13
2019-04-28T00:02:07.314Z,226.01
2019-04-28T00:02:12.314Z,226.01
2019-04-28T00:02:17.316Z,230.22
2019-04-28T00:02:22.317Z,230.22
2019-04-28T00:02:27.317Z,229.67
2019-04-28T00:02:32.667Z,229.67
2019-04-28T00:02:37.320Z,229.19
2019-04-28T00:02:42.322Z,229.19
2019-04-28T00:02:47.322Z,228.75
2019-04-28T00:02:52.323Z,228.75
2019-04-28T00:02:57.324Z,224.13
2019-04-28T00:03:02.324Z,224.13
2019-04-28T00:03:07.325Z,219.76
2019-04-28T00:03:12.325Z,219.76
2019-04-28T00:03:17.329Z,220.33
2019-04-28T00:03:22.329Z,220.33
2019-04-28T00:03:27.329Z,220.83
2019-04-28T00:03:32.330Z,220.83
2019-04-28T00:03:37.331Z,216.73
2019-04-28T00:03:42.332Z,216.73
2019-04-28T00:03:47.335Z,217.63
2019-04-28T00:03:52.336Z,217.63
2019-04-28T00:03:57.336Z,218.42
2019-04-28T00:04:02.335Z,218.42
2019-04-28T00:04:07.339Z,219.12
2019-04-28T00:04:12.342Z,219.12
2019-04-28T00:04:17.339Z,224.02
2019-04-28T00:04:22.339Z,224.02
2019-04-28T00:04:27.341Z,224.12
2019-04-28T00:04:32.341Z,224.12
2019-04-28T00:04:37.344Z,224.22
2019-04-28T00:04:42.345Z,224.22
2019-04-28T00:04:47.345Z,219.81
2019-04-28T00:04:52.348Z,219.81
2019-04-28T00:04:57.349Z,220.38
2019-04-28T00:05:02.349Z,220.38
2019-04-28T00:05:07.348Z,220.88
2019-04-28T00:05:12.350Z,220.88
2019-04-28T00:05:17.350Z,221.32
2019-04-28T00:05:22.469Z,221.32
2019-04-28T00:05:27.353Z,221.71
2019-04-28T00:05:32.354Z,221.71
2019-04-28T00:05:37.353Z,222.06
2019-04-28T00:05:42.354Z,222.06
2019-04-28T00:05:47.356Z,217.91
2019-04-28T00:05:52.356Z,217.91
2019-04-28T00:05:57.358Z,222.95
2019-04-28T00:06:02.361Z,222.95
2019-04-28T00:06:07.360Z,223.17
2019-04-28T00:06:12.362Z,223.17
2019-04-28T00:06:17.363Z,223.37
2019-04-28T00:06:22.362Z,223.37
2019-04-28T00:06:27.363Z,223.55
2019-04-28T00:06:32.365Z,223.55
2019-04-28T00:06:37.365Z,223.70
2019-04-28T00:06:42.367Z,223.70
2019-04-28T00:06:47.373Z,219.37
2019-04-28T00:06:53.819Z,217.57
2019-04-28T00:06:58.817Z,217.57
2019-04-28T00:07:03.819Z,218.37
2019-04-28T00:07:09.043Z,218.37
2019-04-28T00:07:13.819Z,214.48
2019-04-28T00:07:18.822Z,214.48
2019-04-28T00:07:23.830Z,219.83
2019-04-28T00:07:28.823Z,219.83
2019-04-28T00:07:33.824Z,215.63
2019-04-28T00:07:38.825Z,215.63
2019-04-28T00:07:43.826Z,216.68
2019-04-28T00:07:48.827Z,216.68
2019-04-28T00:07:53.829Z,217.61
2019-04-28T00:07:58.829Z,217.61
2019-04-28T00:08:04.079Z,218.42
2019-04-28T00:08:08.831Z,218.42
2019-04-28T00:08:13.832Z,214.44
2019-04-28T00:08:18.839Z,214.44
2019-04-28T00:08:23.842Z,215.60
2019-04-28T00:08:28.842Z,215.60
2019-04-28T00:08:33.836Z,216.63
2019-04-28T00:08:38.839Z,216.63
2019-04-28T00:08:43.837Z,217.53
2019-04-28T00:08:48.843Z,217.53
2019-04-28T00:08:53.839Z,222.63
2019-04-28T00:08:58.842Z,222.63
2019-04-28T00:09:03.842Z,222.89
2019-04-28T00:09:08.845Z,222.89
2019-04-28T00:09:13.844Z,223.12
2019-04-28T00:09:18.846Z,223.12
2019-04-28T00:09:23.848Z,220.92
2019-04-28T00:09:28.846Z,220.92
2019-04-28T00:09:34.065Z,216.76
2019-04-28T00:09:38.850Z,216.76
2019-04-28T00:09:43.851Z,217.66
2019-04-28T00:09:48.854Z,217.66
2019-04-28T00:09:54.413Z,218.45
2019-04-28T00:09:58.852Z,218.45
2019-04-28T00:10:03.854Z,219.16
2019-04-28T00:10:08.854Z,219.16
2019-04-28T00:10:13.855Z,219.78
2019-04-28T00:10:18.859Z,219.78
2019-04-28T00:10:23.859Z,220.34
2019-04-28T00:10:28.859Z,220.34
2019-04-28T00:10:33.861Z,220.83
2019-04-28T00:10:38.861Z,220.83
2019-04-28T00:10:43.862Z,214.20
2019-04-28T00:10:48.864Z,214.20
2019-04-28T00:10:53.864Z,215.43
2019-04-28T00:10:58.866Z,215.43
2019-04-28T00:11:03.865Z,216.50
2019-04-28T00:11:08.866Z,216.50
2019-04-28T00:11:13.868Z,212.63
2019-04-28T00:11:18.868Z,212.63
2019-04-28T00:11:23.871Z,209.11
2019-04-28T00:11:28.871Z,209.11
2019-04-28T00:11:33.873Z,215.05
2019-04-28T00:11:38.872Z,215.05
2019-04-28T00:11:43.891Z,211.15
2019-04-28T00:11:48.877Z,211.15
2019-04-28T00:11:53.875Z,212.75
2019-04-28T00:11:58.878Z,212.75
2019-04-28T00:12:03.878Z,214.15
2019-04-28T00:12:08.881Z,214.15
2019-04-28T00:12:13.879Z,219.79
2019-04-28T00:12:18.881Z,219.79
2019-04-28T00:12:23.882Z,220.40
2019-04-28T00:12:28.881Z,220.40
2019-04-28T00:12:33.883Z,216.03
2019-04-28T00:12:38.884Z,216.03
2019-04-28T00:12:43.884Z,212.05
2019-04-28T00:12:48.886Z,212.05
2019-04-28T00:12:53.885Z,213.54
2019-04-28T00:12:58.889Z,213.54
2019-04-28T00:13:03.938Z,214.84
2019-04-28T00:13:08.888Z,214.84
2019-04-28T00:13:13.892Z,215.99
2019-04-28T00:13:18.891Z,215.99
2019-04-28T00:13:23.891Z,216.99
2019-04-28T00:13:28.892Z,216.99
2019-04-28T00:13:33.894Z,213.10
2019-04-28T00:13:38.900Z,213.10
2019-04-28T00:13:43.896Z,214.42
2019-04-28T00:13:48.897Z,214.42
2019-04-28T00:13:53.899Z,219.88
2019-04-28T00:13:58.899Z,219.88
2019-04-28T00:14:04.105Z,220.46
2019-04-28T00:14:08.986Z,220.46
2019-04-28T00:14:13.903Z,216.18
2019-04-28T00:14:18.904Z,216.18
2019-04-28T00:14:23.906Z,217.18
2019-04-28T00:14:28.904Z,217.18
2019-04-28T00:14:33.906Z,222.50
2019-04-28T00:14:38.906Z,222.50
2019-04-28T00:14:43.910Z,217.94
2019-04-28T00:14:48.910Z,217.94
2019-04-28T00:14:53.912Z,218.76
2019-04-28T00:14:58.912Z,218.76
2019-04-28T00:15:03.913Z,214.57
2019-04-28T00:15:08.927Z,214.57
2019-04-28T00:15:13.913Z,210.77
2019-04-28T00:15:18.916Z,210.77
2019-04-28T00:15:23.917Z,212.39
2019-04-28T00:15:28.917Z,212.39
2019-04-28T00:15:33.918Z,208.85
2019-04-28T00:15:38.920Z,208.85
2019-04-28T00:15:43.922Z,210.67
2019-04-28T00:15:48.922Z,210.67
2019-04-28T00:15:53.924Z,212.27
2019-04-28T00:15:58.922Z,212.27
2019-04-28T00:16:03.924Z,213.68
2019-04-28T00:16:08.925Z,213.68
2019-04-28T00:16:13.925Z,214.92
2019-04-28T00:16:18.927Z,214.92
2019-04-28T00:16:23.927Z,211.27
2019-04-28T00:16:28.928Z,211.27
2019-04-28T00:16:33.931Z,212.77
2019-04-28T00:16:38.930Z,212.77
2019-04-28T00:16:43.932Z,214.10
2019-04-28T00:16:48.933Z,214.10
2019-04-28T00:16:53.933Z,215.28
2019-04-28T00:16:58.933Z,215.28
2019-04-28T00:17:03.937Z,216.32
2019-04-28T00:17:08.936Z,216.32
2019-04-28T00:17:13.942Z,217.25
2019-04-28T00:17:18.937Z,217.25
2019-04-28T00:17:23.987Z,218.07
2019-04-28T00:17:28.943Z,218.07
2019-04-28T00:17:33.942Z,218.80
2019-04-28T00:17:38.948Z,218.80
2019-04-28T00:17:43.943Z,219.45
2019-04-28T00:17:48.942Z,219.45
2019-04-28T00:17:53.944Z,215.55
2019-04-28T00:17:58.944Z,215.55
2019-04-28T00:18:03.948Z,216.55
2019-04-28T00:18:08.946Z,216.55
2019-04-28T00:18:13.949Z,217.44
2019-04-28T00:18:18.950Z,217.44
2019-04-28T00:18:23.949Z,213.70
2019-04-28T00:18:28.950Z,213.70
2019-04-28T00:18:33.951Z,214.90
2019-04-28T00:18:38.953Z,214.90
2019-04-28T00:18:43.955Z,215.97
2019-04-28T00:18:48.955Z,215.97
2019-04-28T00:18:53.956Z,216.92
2019-04-28T00:18:58.956Z,216.92
2019-04-28T00:19:03.957Z,217.77
2019-04-28T00:19:08.959Z,217.77
2019-04-28T00:19:13.960Z,218.52
2019-04-28T00:19:18.960Z,218.52
2019-04-28T00:19:23.961Z,219.20
2019-04-28T00:19:28.964Z,219.20
2019-04-28T00:19:33.964Z,219.80
2019-04-28T00:19:38.965Z,219.80
2019-04-28T00:19:43.968Z,220.34
2019-04-28T00:19:48.969Z,220.34
2019-04-28T00:19:53.969Z,220.82
2019-04-28T00:19:58.971Z,220.82
2019-04-28T00:20:03.970Z,221.25
2019-04-28T00:20:08.970Z,221.25
2019-04-28T00:20:13.972Z,221.63
2019-04-28T00:20:18.973Z,221.63
2019-04-28T00:20:24.323Z,217.64
2019-04-28T00:20:28.973Z,217.64
2019-04-28T00:20:33.977Z,218.41
2019-04-28T00:20:38.977Z,218.41
2019-04-28T00:20:44.395Z,219.09
2019-04-28T00:20:48.981Z,219.09
2019-04-28T00:20:53.982Z,219.70
2019-04-28T00:20:58.981Z,219.70
2019-04-28T00:21:03.982Z,224.42
2019-04-28T00:21:08.984Z,224.42
2019-04-28T00:21:13.985Z,224.48
2019-04-28T00:21:18.987Z,224.48
2019-04-28T00:21:23.985Z,224.54
2019-04-28T00:21:28.986Z,224.54
2019-04-28T00:21:33.988Z,224.58
2019-04-28T00:21:38.989Z,224.58
2019-04-28T00:21:43.990Z,224.63
2019-04-28T00:21:48.990Z,224.63
2019-04-28T00:21:53.992Z,224.67
2019-04-28T00:21:58.993Z,224.67
2019-04-28T00:22:03.994Z,224.70
2019-04-28T00:22:08.993Z,224.70
2019-04-28T00:22:13.996Z,224.73
2019-04-28T00:22:18.996Z,224.73
2019-04-28T00:22:23.997Z,224.76
2019-04-28T00:22:29.000Z,224.76
2019-04-28T00:22:34.000Z,224.78
2019-04-28T00:22:39.003Z,224.78
2019-04-28T00:22:44.001Z,224.81
2019-04-28T00:22:49.002Z,224.81
2019-04-28T00:22:54.010Z,224.83
2019-04-28T00:22:59.005Z,224.83
2019-04-28T00:23:04.008Z,224.84
2019-04-28T00:23:09.009Z,224.84
2019-04-28T00:23:14.013Z,220.62
2019-04-28T00:23:19.008Z,220.62
2019-04-28T00:23:24.010Z,221.07
2019-04-28T00:23:29.012Z,221.07
2019-04-28T00:23:34.009Z,217.08
2019-04-28T00:23:39.011Z,217.08
2019-04-28T00:23:44.012Z,217.91
2019-04-28T00:23:49.013Z,217.91
2019-04-28T00:23:54.012Z,218.65
2019-04-28T00:23:59.013Z,218.65
2019-04-28T00:24:04.016Z,223.51
2019-04-28T00:24:09.016Z,223.51
2019-04-28T00:24:14.021Z,223.67
2019-04-28T00:24:19.021Z,223.67
2019-04-28T00:24:24.019Z,223.81
2019-04-28T00:24:29.021Z,223.81
2019-04-28T00:24:34.021Z,223.94
2019-04-28T00:24:39.023Z,223.94
2019-04-28T00:24:44.023Z,224.05
2019-04-28T00:24:49.026Z,224.05
2019-04-28T00:24:54.025Z,219.76
2019-04-28T00:24:59.060Z,219.76
2019-04-28T00:25:04.062Z,220.32
2019-04-28T00:25:09.062Z,220.32
2019-04-28T00:25:14.544Z,220.81
2019-04-28T00:25:19.063Z,220.81
2019-04-28T00:25:24.066Z,221.25
2019-04-28T00:25:29.066Z,221.25
2019-04-28T00:25:34.066Z,221.65
2019-04-28T00:25:39.068Z,221.65
2019-04-28T00:25:44.070Z,226.27
2019-04-28T00:25:49.069Z,226.27
2019-04-28T00:25:54.070Z,221.70
2019-04-28T00:25:59.070Z,221.70
2019-04-28T00:26:04.071Z,217.42
2019-04-28T00:26:09.074Z,217.42
2019-04-28T00:26:14.073Z,222.67
2019-04-28T00:26:19.075Z,222.67
2019-04-28T00:26:24.077Z,222.94
2019-04-28T00:26:29.077Z,222.94
2019-04-28T00:26:34.078Z,215.79
2019-04-28T00:26:39.080Z,215.79
2019-04-28T00:26:44.081Z,216.90
2019-04-28T00:26:49.082Z,216.90
2019-04-28T00:26:54.081Z,217.87
2019-04-28T00:26:59.083Z,217.87
2019-04-28T00:27:04.085Z,218.70
2019-04-28T00:27:09.085Z,218.70
2019-04-28T00:27:14.085Z,219.42
2019-04-28T00:27:19.088Z,219.42
2019-04-28T00:27:24.087Z,215.19
2019-04-28T00:27:29.090Z,215.19
2019-04-28T00:27:34.090Z,211.34
2019-04-28T00:27:39.094Z,211.34
2019-04-28T00:27:44.093Z,207.87
2019-04-28T00:27:49.092Z,207.87
2019-04-28T00:27:54.093Z,209.81
2019-04-28T00:27:59.095Z,209.81
2019-04-28T00:28:04.096Z,211.52
2019-04-28T00:28:09.097Z,211.52
2019-04-28T00:28:14.097Z,213.02
2019-04-28T00:28:19.100Z,213.02
2019-04-28T00:28:24.099Z,214.35
2019-04-28T00:28:29.102Z,214.35
2019-04-28T00:28:34.107Z,210.72
2019-04-28T00:28:39.102Z,210.72
2019-04-28T00:28:44.102Z,207.44
2019-04-28T00:28:49.105Z,207.44
2019-04-28T00:28:54.106Z,204.47
2019-04-28T00:28:59.105Z,204.47
2019-04-28T00:29:04.105Z,206.71
2019-04-28T00:29:09.111Z,206.71
2019-04-28T00:29:14.110Z,208.71
2019-04-28T00:29:19.111Z,208.71
2019-04-28T00:29:24.112Z,214.53
2019-04-28T00:29:29.113Z,214.53
2019-04-28T00:29:34.114Z,215.71
2019-04-28T00:29:39.114Z,215.71
2019-04-28T00:29:44.114Z,216.76
2019-04-28T00:29:49.114Z,216.76
2019-04-28T00:29:54.117Z,217.67
2019-04-28T00:29:59.117Z,217.67
2019-04-28T00:30:04.167Z,218.47
2019-04-28T00:30:09.119Z,218.47
2019-04-28T00:30:14.121Z,219.19
2019-04-28T00:30:19.121Z,219.19
2019-04-28T00:30:24.124Z,224.17
2019-04-28T00:30:29.125Z,224.17
2019-04-28T00:30:34.125Z,224.27
2019-04-28T00:30:39.125Z,224.27
2019-04-28T00:30:44.129Z,219.75
2019-04-28T00:30:49.128Z,219.75
2019-04-28T00:30:54.127Z,224.85
2019-04-28T00:30:59.130Z,224.85
2019-04-28T00:31:04.415Z,224.87
2019-04-28T00:31:09.131Z,224.87
2019-04-28T00:31:14.133Z,224.88
2019-04-28T00:31:19.133Z,224.88
2019-04-28T00:31:24.136Z,220.26
2019-04-28T00:31:29.135Z,220.26
2019-04-28T00:31:34.135Z,225.37
2019-04-28T00:31:39.138Z,225.37
2019-04-28T00:31:44.137Z,230.14
2019-04-28T00:31:49.139Z,230.14
2019-04-28T00:31:54.140Z,229.55
2019-04-28T00:31:59.144Z,229.55
2019-04-28T00:32:04.144Z,229.03
2019-04-28T00:32:09.143Z,229.03
2019-04-28T00:32:14.143Z,233.38
2019-04-28T00:32:19.145Z,233.38
2019-04-28T00:32:24.147Z,227.90
2019-04-28T00:32:29.147Z,227.90
2019-04-28T00:32:34.149Z,222.76
2019-04-28T00:32:39.149Z,222.76
2019-04-28T00:32:44.150Z,223.02
2019-04-28T00:32:49.151Z,223.02
2019-04-28T00:32:54.153Z,218.34
2019-04-28T00:32:59.152Z,218.34
2019-04-28T00:33:04.156Z,219.12
2019-04-28T00:33:09.155Z,219.12
2019-04-28T00:33:14.158Z,219.80
2019-04-28T00:33:19.156Z,219.80
2019-04-28T00:33:24.159Z,220.39
2019-04-28T00:33:29.159Z,220.39
2019-04-28T00:33:34.159Z,220.91
2019-04-28T00:33:39.161Z,220.91
2019-04-28T00:33:44.162Z,221.36
2019-04-28T00:33:49.161Z,221.36
2019-04-28T00:33:54.163Z,221.76
2019-04-28T00:33:59.165Z,221.76
2019-04-28T00:34:04.166Z,226.57
2019-04-28T00:34:09.167Z,226.57
2019-04-28T00:34:14.166Z,221.79
2019-04-28T00:34:19.168Z,221.79
2019-04-28T00:34:24.168Z,217.36
2019-04-28T00:34:29.170Z,217.36
2019-04-28T00:34:34.170Z,218.23
2019-04-28T00:34:39.171Z,218.23
2019-04-28T00:34:44.171Z,214.15
2019-04-28T00:34:49.213Z,214.15
2019-04-28T00:34:54.179Z,212.83
2019-04-28T00:34:59.175Z,212.83
2019-04-28T00:35:04.176Z,214.19
2019-04-28T00:35:09.178Z,214.19
2019-04-28T00:35:14.179Z,219.70
2019-04-28T00:35:19.181Z,219.70
2019-04-28T00:35:24.184Z,220.31
2019-04-28T00:35:29.181Z,220.31
2019-04-28T00:35:34.184Z,220.84
2019-04-28T00:35:39.186Z,220.84
2019-04-28T00:35:44.185Z,221.30
2019-04-28T00:35:49.186Z,221.30
2019-04-28T00:35:54.187Z,221.71
2019-04-28T00:35:59.187Z,221.71
2019-04-28T00:36:04.189Z,222.07
2019-04-28T00:36:09.189Z,222.07
2019-04-28T00:36:14.190Z,229.01
2019-04-28T00:36:19.191Z,229.01
2019-04-28T00:36:24.192Z,235.36
2019-04-28T00:36:29.192Z,235.36
2019-04-28T00:36:34.194Z,233.91
2019-04-28T00:36:39.193Z,233.91
2019-04-28T00:36:44.196Z,232.71
2019-04-28T00:36:49.197Z,232.71
2019-04-28T00:36:54.197Z,231.71
2019-04-28T00:36:59.198Z,231.71
2019-04-28T00:37:04.199Z,230.86
2019-04-28T00:37:09.201Z,230.86
2019-04-28T00:37:14.201Z,230.14
2019-04-28T00:37:19.205Z,230.14
2019-04-28T00:37:24.203Z,229.52
2019-04-28T00:37:29.204Z,229.52
2019-04-28T00:37:34.207Z,228.98
2019-04-28T00:37:39.208Z,228.98
2019-04-28T00:37:44.208Z,228.52
2019-04-28T00:37:49.209Z,228.52
2019-04-28T00:37:54.210Z,228.12
2019-04-28T00:37:59.209Z,228.12
2019-04-28T00:38:04.213Z,227.77
2019-04-28T00:38:09.216Z,227.77
2019-04-28T00:38:14.213Z,227.46
2019-04-28T00:38:19.216Z,227.46
2019-04-28T00:38:24.218Z,227.19
2019-04-28T00:38:29.219Z,227.19
2019-04-28T00:38:34.217Z,226.95
2019-04-28T00:38:39.217Z,226.95
2019-04-28T00:38:44.402Z,231.29
2019-04-28T00:38:49.240Z,231.29
2019-04-28T00:38:54.223Z,230.60
2019-04-28T00:38:59.221Z,230.60
2019-04-28T00:39:04.223Z,225.60
2019-04-28T00:39:09.223Z,225.60
2019-04-28T00:39:14.224Z,225.53
2019-04-28T00:39:19.228Z,225.53
2019-04-28T00:39:24.228Z,225.48
2019-04-28T00:39:29.229Z,225.48
2019-04-28T00:39:34.459Z,225.42
2019-04-28T00:39:39.232Z,225.42
2019-04-28T00:39:44.250Z,225.38
2019-04-28T00:39:49.231Z,225.38
2019-04-28T00:39:54.234Z,220.87
2019-04-28T00:39:59.234Z,220.87
2019-04-28T00:40:04.236Z,225.78
2019-04-28T00:40:09.234Z,225.78
2019-04-28T00:40:14.482Z,230.38
2019-04-28T00:40:19.236Z,230.38
2019-04-28T00:40:24.237Z,229.77
2019-04-28T00:40:29.239Z,229.77
2019-04-28T00:40:34.244Z,229.24
2019-04-28T00:40:39.241Z,229.24
2019-04-28T00:40:44.242Z,228.77
2019-04-28T00:40:49.244Z,228.77
2019-04-28T00:40:54.244Z,228.36
2019-04-28T00:40:59.247Z,228.36
2019-04-28T00:41:04.246Z,227.99
2019-04-28T00:41:09.248Z,227.99
2019-04-28T00:41:14.249Z,223.26
2019-04-28T00:41:19.250Z,223.26
2019-04-28T00:41:24.253Z,218.82
2019-04-28T00:41:29.250Z,218.82
2019-04-28T00:41:34.252Z,219.51
2019-04-28T00:41:39.252Z,219.51
2019-04-28T00:41:44.254Z,224.57
2019-04-28T00:41:49.254Z,224.57
2019-04-28T00:41:54.257Z,229.33
2019-04-28T00:41:59.257Z,229.33
2019-04-28T00:42:04.259Z,228.83
2019-04-28T00:42:09.260Z,228.83
2019-04-28T00:42:14.260Z,228.40
2019-04-28T00:42:19.260Z,228.40
2019-04-28T00:42:24.265Z,228.02
2019-04-28T00:42:29.262Z,228.02
2019-04-28T00:42:34.302Z,227.69
2019-04-28T00:42:39.265Z,227.69
2019-04-28T00:42:44.266Z,227.39
2019-04-28T00:42:49.267Z,227.39
2019-04-28T00:42:54.270Z,231.70
2019-04-28T00:42:59.267Z,231.70
2019-04-28T00:43:04.268Z,230.97
2019-04-28T00:43:09.273Z,230.97
2019-04-28T00:43:14.271Z,230.32
2019-04-28T00:43:19.272Z,230.32
2019-04-28T00:43:24.275Z,229.75
2019-04-28T00:43:29.273Z,229.75
2019-04-28T00:43:34.275Z,229.24
2019-04-28T00:43:39.278Z,229.24
2019-04-28T00:43:44.279Z,228.79
2019-04-28T00:43:49.280Z,228.79
2019-04-28T00:43:54.280Z,228.39
2019-04-28T00:43:59.279Z,228.39
2019-04-28T00:44:04.282Z,228.03
2019-04-28T00:44:09.282Z,228.03
2019-04-28T00:44:14.282Z,232.14
2019-04-28T00:44:19.283Z,232.14
2019-04-28T00:44:24.284Z,231.38
2019-04-28T00:44:29.286Z,231.38
2019-04-28T00:44:34.288Z,230.71
2019-04-28T00:44:39.289Z,230.71
2019-04-28T00:44:44.290Z,225.87
2019-04-28T00:44:49.289Z,225.87
2019-04-28T00:44:54.290Z,225.77
2019-04-28T00:44:59.292Z,225.77
2019-04-28T00:45:04.821Z,221.23
2019-04-28T00:45:09.294Z,221.23
2019-04-28T00:45:14.294Z,216.99
2019-04-28T00:45:19.297Z,216.99
2019-04-28T00:45:24.295Z,217.88
2019-04-28T00:45:29.299Z,217.88
2019-04-28T00:45:34.298Z,213.93
2019-04-28T00:45:39.300Z,213.93
2019-04-28T00:45:44.300Z,215.15
2019-04-28T00:45:49.302Z,215.15
2019-04-28T00:45:54.302Z,216.23
2019-04-28T00:45:59.306Z,216.23
2019-04-28T00:46:04.304Z,217.18
2019-04-28T00:46:09.305Z,217.18
2019-04-28T00:46:14.306Z,222.31
2019-04-28T00:46:19.306Z,222.31
2019-04-28T00:46:24.308Z,217.92
2019-04-28T00:46:29.310Z,217.92
2019-04-28T00:46:34.311Z,218.71
2019-04-28T00:46:39.310Z,218.71
2019-04-28T00:46:44.312Z,219.41
2019-04-28T00:46:49.313Z,219.41
2019-04-28T00:46:54.316Z,220.02
2019-04-28T00:46:59.314Z,220.02
2019-04-28T00:47:04.370Z,215.91
2019-04-28T00:47:09.370Z,215.91
2019-04-28T00:47:14.370Z,216.91
2019-04-28T00:47:19.372Z,216.91
2019-04-28T00:47:24.371Z,217.79
2019-04-28T00:47:29.373Z,217.79
2019-04-28T00:47:34.373Z,218.57
2019-04-28T00:47:39.375Z,218.57
2019-04-28T00:47:44.377Z,219.26
2019-04-28T00:47:49.377Z,219.26
2019-04-28T00:47:54.377Z,219.87
2019-04-28T00:47:59.380Z,219.87
2019-04-28T00:48:04.379Z,220.42
2019-04-28T00:48:09.381Z,220.42
2019-04-28T00:48:14.382Z,220.90
2019-04-28T00:48:19.383Z,220.90
2019-04-28T00:48:24.382Z,225.60
2019-04-28T00:48:29.385Z,225.60
2019-04-28T00:48:34.385Z,225.54
2019-04-28T00:48:39.388Z,225.54
2019-04-28T00:48:44.460Z,225.48
2019-04-28T00:48:49.388Z,225.48
2019-04-28T00:48:54.389Z,225.43
2019-04-28T00:48:59.390Z,225.43
2019-04-28T00:49:04.393Z,229.79
2019-04-28T00:49:09.392Z,229.79
2019-04-28T00:49:14.393Z,229.28
2019-04-28T00:49:19.393Z,229.28
2019-04-28T00:49:24.399Z,224.48
2019-04-28T00:49:29.523Z,224.48
2019-04-28T00:49:34.396Z,224.53
2019-04-28T00:49:39.399Z,224.53
2019-04-28T00:49:44.400Z,224.58
2019-04-28T00:49:49.401Z,224.58
2019-04-28T00:49:54.400Z,220.14
2019-04-28T00:49:59.401Z,220.14
2019-04-28T00:50:04.402Z,227.18
2019-04-28T00:50:09.404Z,227.18
2019-04-28T00:50:14.403Z,226.92
2019-04-28T00:50:19.407Z,226.92
2019-04-28T00:50:24.407Z,231.68
2019-04-28T00:50:29.406Z,231.68
2019-04-28T00:50:34.407Z,230.88
2019-04-28T00:50:39.411Z,230.88
2019-04-28T00:50:44.501Z,230.20
2019-04-28T00:50:49.411Z,230.20
2019-04-28T00:50:54.413Z,237.48
2019-04-28T00:50:59.418Z,237.48
2019-04-28T00:51:04.413Z,235.94
2019-04-28T00:51:09.415Z,235.94
2019-04-28T00:51:14.416Z,229.88
2019-04-28T00:51:19.416Z,229.88
2019-04-28T00:51:24.417Z,229.28
2019-04-28T00:51:29.421Z,229.28
2019-04-28T00:51:34.421Z,223.80
2019-04-28T00:51:39.420Z,223.80
2019-04-28T00:51:44.424Z,223.95
2019-04-28T00:51:49.424Z,223.95
2019-04-28T00:51:54.425Z,224.08
2019-04-28T00:51:59.427Z,224.08
2019-04-28T00:52:04.425Z,229.09
2019-04-28T00:52:09.427Z,229.09
2019-04-28T00:52:14.428Z,228.60
2019-04-28T00:52:19.430Z,228.60
2019-04-28T00:52:24.431Z,225.62
2019-04-28T00:52:29.430Z,225.62
2019-04-28T00:52:34.432Z,220.72
2019-04-28T00:52:39.432Z,220.72
2019-04-28T00:52:44.439Z,226.02
2019-04-28T00:52:49.434Z,226.02
2019-04-28T00:52:54.436Z,225.89
2019-04-28T00:52:59.435Z,225.89
2019-04-28T00:53:04.438Z,225.79
2019-04-28T00:53:09.439Z,225.79
2019-04-28T00:53:14.445Z,225.70
2019-04-28T00:53:19.440Z,225.70
2019-04-28T00:53:24.444Z,225.62
2019-04-28T00:53:29.442Z,225.62
2019-04-28T00:53:34.563Z,230.24
2019-04-28T00:53:39.448Z,230.24
2019-04-28T00:53:44.446Z,237.42
2019-04-28T00:53:49.448Z,237.42
2019-04-28T00:53:54.448Z,231.18
2019-04-28T00:53:59.450Z,231.18
2019-04-28T00:54:04.451Z,230.41
2019-04-28T00:54:09.451Z,230.41
2019-04-28T00:54:14.450Z,234.99
2019-04-28T00:54:19.451Z,234.99
2019-04-28T00:54:24.452Z,233.77
2019-04-28T00:54:29.455Z,233.77
2019-04-28T00:54:34.738Z,232.73
2019-04-28T00:54:39.456Z,232.73
2019-04-28T00:54:44.457Z,227.12
2019-04-28T00:54:49.457Z,227.12
2019-04-28T00:54:54.458Z,231.94
2019-04-28T00:54:59.464Z,231.94
2019-04-28T00:55:04.460Z,226.25
2019-04-28T00:55:09.461Z,226.25
2019-04-28T00:55:14.465Z,226.10
2019-04-28T00:55:19.465Z,226.10
2019-04-28T00:55:24.466Z,225.97
2019-04-28T00:55:29.467Z,225.97
2019-04-28T00:55:34.467Z,225.85
2019-04-28T00:55:39.467Z,225.85
2019-04-28T00:55:44.468Z,230.61
2019-04-28T00:55:49.471Z,230.61
2019-04-28T00:55:54.471Z,229.96
2019-04-28T00:55:59.470Z,229.96
2019-04-28T00:56:04.471Z,237.25
2019-04-28T00:56:09.473Z,237.25
2019-04-28T00:56:14.472Z,235.74
2019-04-28T00:56:19.473Z,235.74
2019-04-28T00:56:24.479Z,234.44
2019-04-28T00:56:29.476Z,234.44
2019-04-28T00:56:34.476Z,233.32
2019-04-28T00:56:39.479Z,233.32
2019-04-28T00:56:44.480Z,232.35
2019-04-28T00:56:49.480Z,232.35
2019-04-28T00:56:54.482Z,231.50
2019-04-28T00:56:59.484Z,231.50
2019-04-28T00:57:04.484Z,230.77
2019-04-28T00:57:09.489Z,230.77
2019-04-28T00:57:14.489Z,230.12
2019-04-28T00:57:19.487Z,230.12
2019-04-28T00:57:24.489Z,229.56
2019-04-28T00:57:29.489Z,229.56
2019-04-28T00:57:34.490Z,229.06
2019-04-28T00:57:39.492Z,229.06
2019-04-28T00:57:44.493Z,228.62
2019-04-28T00:57:49.493Z,228.62
2019-04-28T00:57:54.495Z,228.23
2019-04-28T00:57:59.498Z,228.23
2019-04-28T00:58:04.496Z,232.41
2019-04-28T00:58:09.494Z,232.41
2019-04-28T00:58:14.498Z,231.61
2019-04-28T00:58:19.498Z,231.61
2019-04-28T00:58:24.498Z,230.90
2019-04-28T00:58:29.500Z,230.90
2019-04-28T00:58:34.506Z,230.27
2019-04-28T00:58:39.505Z,230.27
2019-04-28T00:58:44.502Z,229.71
2019-04-28T00:58:49.504Z,229.71
2019-04-28T00:58:54.504Z,233.72
2019-04-28T00:58:59.508Z,233.72
2019-04-28T00:59:04.507Z,228.55
2019-04-28T00:59:09.508Z,228.55
2019-04-28T00:59:14.509Z,228.16
2019-04-28T00:59:19.517Z,228.16
2019-04-28T00:59:24.511Z,225.42
2019-04-28T00:59:29.511Z,225.42
2019-04-28T00:59:34.514Z,225.38
2019-04-28T00:59:39.516Z,225.38
2019-04-28T00:59:44.522Z,220.83
2019-04-28T00:59:49.516Z,220.83
2019-04-28T00:59:54.518Z,225.78
2019-04-28T00:59:59.518Z,225.78
2019-04-28T01:00:04.518Z,230.42
2019-04-28T01:00:09.519Z,230.42
2019-04-28T01:00:14.522Z,229.80
2019-04-28T01:00:19.521Z,229.80
2019-04-28T01:00:24.521Z,229.26
2019-04-28T01:00:29.522Z,229.26
2019-04-28T01:00:34.529Z,228.79
2019-04-28T01:00:39.526Z,228.79
2019-04-28T01:00:44.525Z,228.37
2019-04-28T01:00:49.529Z,228.37
2019-04-28T01:00:54.532Z,235.28
2019-04-28T01:00:59.530Z,235.28
2019-04-28T01:01:04.532Z,234.07
2019-04-28T01:01:09.534Z,234.07
2019-04-28T01:01:14.532Z,228.43
2019-04-28T01:01:19.536Z,228.43
2019-04-28T01:01:24.559Z,233.07
2019-04-28T01:01:29.535Z,233.07
2019-04-28T01:01:34.535Z,237.28
2019-04-28T01:01:39.535Z,237.28
2019-04-28T01:01:44.540Z,235.82
2019-04-28T01:01:49.540Z,235.82
2019-04-28T01:01:54.538Z,229.97
2019-04-28T01:01:59.540Z,229.97
2019-04-28T01:02:04.542Z,234.53
2019-04-28T01:02:09.548Z,234.53
2019-04-28T01:02:14.541Z,233.38
2019-04-28T01:02:19.545Z,233.38
2019-04-28T01:02:24.554Z,237.52